Time;durP1;ratioP1;P1;durP2;ratioP2;P2;SDS_P1;SDS_P2;PMS_P1;PMS_P2;Temp;Humidity;BMP_temperature;BMP_pressure;BME280_temperature;BME280_humidity;BME280_pressure;Samples;Min_cycle;Max_cycle;Signal;HPM_P1;HPM_P2
2022/07/23 00:07:52;;;;;;;12.70;6.25;;;;;;;25.47;53.82;100405.94;18295123;32;20090;-56
2022/07/23 00:17:56;;;;;;;11.48;5.97;;;;;;;25.21;54.72;100389.78;18296331;32;20112;-56
2022/07/23 00:28:00;;;;;;;12.05;6.12;;;;;;;25.04;55.38;100407.75;18295678;32;20151;-56
2022/07/23 00:38:05;;;;;;;10.70;6.03;;;;;;;25.05;54.85;100406.78;18294155;32;20106;-56
2022/07/23 00:48:09;;;;;;;11.70;5.70;;;;;;;24.94;55.02;100407.47;18294134;32;20108;-56
2022/07/23 00:58:13;;;;;;;12.15;6.32;;;;;;;24.49;56.61;100415.53;18293514;32;20392;-55
2022/07/23 01:08:17;;;;;;;10.15;5.90;;;;;;;24.65;55.96;100404.75;18292401;32;20101;-56
2022/07/23 01:18:23;;;;;;;12.73;6.15;;;;;;;24.81;56.23;100398.53;18292645;32;20130;-56
2022/07/23 01:28:28;;;;;;;11.55;5.70;;;;;;;24.31;57.65;100403.31;18291708;32;20356;-56
2022/07/23 01:38:31;;;;;;;11.12;6.15;;;;;;;24.45;56.87;100397.13;18344304;32;20338;-56
2022/07/23 01:48:36;;;;;;;10.55;5.20;;;;;;;24.24;57.12;100411.66;18292196;32;20098;-56
2022/07/23 01:58:39;;;;;;;14.45;5.65;;;;;;;24.23;56.61;100404.59;18291781;31;20146;-55
2022/07/23 02:08:44;;;;;;;9.65;5.30;;;;;;;24.04;56.85;100398.62;18289943;32;20109;-56
2022/07/23 02:18:47;;;;;;;10.07;5.55;;;;;;;23.95;57.34;100398.22;18296491;32;20441;-55
2022/07/23 02:28:52;;;;;;;11.25;5.40;;;;;;;23.85;57.93;100394.38;18299645;32;20125;-55
2022/07/23 02:38:55;;;;;;;11.25;5.30;;;;;;;23.75;57.80;100390.53;18299054;32;20104;-55
2022/07/23 02:49:00;;;;;;;15.02;5.60;;;;;;;23.52;58.65;100398.00;18298488;32;20109;-55
2022/07/23 02:59:04;;;;;;;11.23;5.60;;;;;;;23.22;59.23;100412.94;18298176;32;20113;-55
2022/07/23 03:09:09;;;;;;;13.05;5.07;;;;;;;23.16;58.82;100412.44;18349149;32;20089;-55
2022/07/23 03:19:12;;;;;;;9.68;4.65;;;;;;;23.05;59.21;100411.22;18297386;32;20108;-55
2022/07/23 03:29:18;;;;;;;16.15;5.35;;;;;;;23.10;59.06;100413.63;18296573;32;20150;-55
2022/07/23 03:39:21;;;;;;;10.90;5.15;;;;;;;23.04;59.08;100409.47;18296493;32;20104;-55
2022/07/23 03:49:26;;;;;;;11.35;4.95;;;;;;;23.14;59.48;100402.72;18295940;32;20442;-55
2022/07/23 03:59:29;;;;;;;10.23;5.12;;;;;;;23.37;59.11;100411.28;18295662;32;20469;-55
2022/07/23 04:09:33;;;;;;;11.43;4.50;;;;;;;23.65;58.69;100407.03;18295124;32;20106;-56
2022/07/23 04:19:39;;;;;;;8.40;4.35;;;;;;;24.44;57.05;100419.44;18295066;32;20093;-55
2022/07/23 04:29:44;;;;;;;8.77;3.78;;;;;;;25.59;53.31;100418.53;18294713;32;20082;-55
2022/07/23 04:39:47;;;;;;;8.60;4.55;;;;;;;25.88;52.40;100418.41;18293995;32;20116;-56
2022/07/23 04:49:52;;;;;;;9.48;4.07;;;;;;;26.01;51.33;100418.44;18293463;32;20141;-56
2022/07/23 04:59:55;;;;;;;7.95;3.75;;;;;;;26.33;49.04;100419.94;18293380;32;20449;-56
2022/07/23 05:09:59;;;;;;;10.48;4.12;;;;;;;26.15;50.63;100430.06;18292747;32;20198;-56
2022/07/23 05:20:03;;;;;;;9.15;3.80;;;;;;;26.49;50.44;100424.25;18346203;32;20706;-55
2022/07/23 05:30:09;;;;;;;6.37;3.25;;;;;;;26.98;47.46;100426.19;18292029;32;20093;-56
2022/07/23 05:40:13;;;;;;;8.48;3.70;;;;;;;27.63;46.28;100423.34;18344237;32;20178;-56
2022/07/23 05:50:18;;;;;;;9.88;3.25;;;;;;;27.91;45.76;100420.44;18295993;32;20128;-56
2022/07/23 06:00:21;;;;;;;8.73;3.50;;;;;;;28.36;44.44;100406.31;18300443;32;20478;-56
2022/07/23 06:10:26;;;;;;;7.50;3.55;;;;;;;28.69;43.33;100406.47;18300132;32;20441;-56
2022/07/23 06:20:29;;;;;;;8.93;3.90;;;;;;;29.44;42.66;100402.31;18300020;32;20097;-56
2022/07/23 06:30:34;;;;;;;9.77;3.45;;;;;;;29.68;41.91;100392.31;18300353;32;20141;-56
2022/07/23 06:40:37;;;;;;;7.78;2.83;;;;;;;30.49;39.69;100394.47;18351461;32;20093;-56
2022/07/23 06:50:42;;;;;;;5.80;3.00;;;;;;;31.26;37.63;100384.19;18298549;32;20090;-56
2022/07/23 07:00:45;;;;;;;6.87;2.85;;;;;;;31.66;35.13;100386.91;18297694;32;20120;-56
2022/07/23 07:10:50;;;;;;;9.40;2.83;;;;;;;31.75;33.23;100377.09;18297662;32;20098;-56
2022/07/23 07:20:53;;;;;;;8.00;3.65;;;;;;;32.66;31.29;100367.72;18297491;32;20159;-56
2022/07/23 07:31:00;;;;;;;14.50;2.83;;;;;;;33.52;30.48;100359.41;18297052;32;20089;-56
2022/07/23 07:41:03;;;;;;;6.82;3.00;;;;;;;33.96;27.17;100354.03;18296769;32;20129;-56
2022/07/23 07:51:08;;;;;;;6.90;2.97;;;;;;;34.71;27.48;100357.22;18296066;32;20112;-56
2022/07/23 08:01:11;;;;;;;6.57;3.35;;;;;;;35.09;25.88;100341.44;18295930;32;20465;-56
2022/07/23 08:11:16;;;;;;;8.18;3.10;;;;;;;35.92;25.59;100335.22;18293832;32;20097;-56
2022/07/23 08:21:19;;;;;;;7.82;3.12;;;;;;;35.88;24.92;100334.72;18295349;32;20097;-56
2022/07/23 08:31:24;;;;;;;10.18;2.92;;;;;;;37.08;22.89;100328.59;18294738;32;20086;-56
2022/07/23 08:41:27;;;;;;;6.80;3.15;;;;;;;36.57;22.83;100327.97;18294261;32;20094;-56
2022/07/23 08:51:32;;;;;;;5.32;2.40;;;;;;;36.93;22.50;100327.44;18293967;32;20089;-56
2022/07/23 09:01:37;;;;;;;11.30;2.80;;;;;;;37.69;20.64;100316.91;18346183;32;20098;-56
2022/07/23 09:11:47;;;;;;;7.65;2.40;;;;;;;38.07;20.54;100294.25;18495824;32;20158;-56
2022/07/23 09:21:50;;;;;;;5.12;2.47;;;;;;;39.15;20.59;100287.41;18495476;32;20084;-56
2022/07/23 09:31:56;;;;;;;5.85;2.85;;;;;;;39.22;19.40;100285.59;18495298;32;20127;-56
2022/07/23 09:42:14;;;;;;;6.03;2.60;;;;;;;40.68;18.17;100276.88;18495266;32;20123;-56
2022/07/23 09:52:27;;;;;;;6.85;3.37;;;;;;;40.49;18.23;100271.97;18493761;32;20106;-56
2022/07/23 10:02:36;;;;;;;6.32;2.95;;;;;;;40.96;18.42;100260.31;18474438;32;20093;-56
2022/07/23 10:13:03;;;;;;;4.37;2.62;;;;;;;41.06;18.50;100257.19;18343008;32;20113;-56
2022/07/23 10:23:11;;;;;;;8.10;3.20;;;;;;;41.29;17.96;100253.22;18289969;32;20194;-55
2022/07/23 10:33:28;;;;;;;7.85;2.95;;;;;;;40.97;18.10;100233.81;18289356;32;20108;-55
2022/07/23 10:43:32;;;;;;;5.40;2.77;;;;;;;41.51;17.31;100228.34;18299058;32;20112;-56
2022/07/23 10:53:58;;;;;;;5.43;3.00;;;;;;;41.88;16.62;100220.47;18298513;32;20090;-56
2022/07/23 11:04:04;;;;;;;7.77;2.90;;;;;;;41.92;17.18;100204.44;18297965;32;20141;-55
2022/07/23 11:14:12;;;;;;;9.48;3.60;;;;;;;42.62;16.01;100195.50;18349993;32;20090;-56
2022/07/23 11:24:24;;;;;;;6.85;3.50;;;;;;;42.66;15.86;100191.25;18349469;32;20116;-55
2022/07/23 11:34:32;;;;;;;6.82;3.67;;;;;;;43.01;15.38;100184.47;18296325;32;20090;-55
2022/07/23 11:44:37;;;;;;;7.75;3.97;;;;;;;42.54;16.05;100173.81;18296327;32;20473;-55
2022/07/23 11:54:50;;;;;;;6.80;3.53;;;;;;;42.23;16.44;100164.50;18296084;32;20089;-55
2022/07/23 12:04:54;;;;;;;7.68;3.47;;;;;;;42.55;15.16;100156.31;18295795;32;20109;-55
2022/07/23 12:14:59;;;;;;;7.82;3.90;;;;;;;41.97;16.82;100141.63;18295220;32;20110;-55
2022/07/23 12:25:06;;;;;;;5.72;3.10;;;;;;;41.99;16.98;100115.69;18296147;32;20094;-55
2022/07/23 12:35:11;;;;;;;6.18;3.12;;;;;;;42.32;15.90;100111.09;18294526;32;20094;-55
2022/07/23 12:45:15;;;;;;;7.15;3.60;;;;;;;42.56;15.21;100098.47;18294096;32;20122;-55
2022/07/23 12:55:29;;;;;;;7.20;3.40;;;;;;;41.96;15.76;100096.09;18293805;32;20138;-55
2022/07/23 13:05:35;;;;;;;6.95;3.17;;;;;;;41.54;16.74;100083.59;18292795;32;20113;-55
2022/07/23 13:15:40;;;;;;;6.40;3.28;;;;;;;42.30;15.60;100066.56;18292591;32;20112;-54
2022/07/23 13:25:44;;;;;;;6.55;3.37;;;;;;;43.36;14.62;100059.53;18293754;32;20108;-56
2022/07/23 13:35:50;;;;;;;5.55;3.35;;;;;;;42.63;13.95;100056.41;18293043;32;20154;-56
2022/07/23 13:45:54;;;;;;;7.40;3.15;;;;;;;42.03;16.47;100039.34;18291839;32;20090;-56
2022/07/23 13:55:58;;;;;;;7.00;3.55;;;;;;;42.21;15.62;100026.78;18291433;32;20098;-55
2022/07/23 14:06:02;;;;;;;6.68;3.50;;;;;;;42.38;15.79;100021.59;18290745;32;20576;-55
2022/07/23 14:16:08;;;;;;;6.00;3.40;;;;;;;42.45;14.85;100018.78;18298035;32;20116;-55
2022/07/23 14:26:11;;;;;;;7.12;3.35;;;;;;;42.61;14.90;100012.78;18299806;32;20086;-56
2022/07/23 14:36:18;;;;;;;7.18;3.97;;;;;;;42.09;15.40;100002.00;18299400;32;20117;-55
2022/07/23 14:46:22;;;;;;;6.22;3.58;;;;;;;41.42;16.26;99965.69;18352217;32;20503;-56
2022/07/23 14:56:27;;;;;;;6.68;3.65;;;;;;;41.77;17.02;99942.53;18298100;32;20754;-56
2022/07/23 15:06:30;;;;;;;16.08;3.90;;;;;;;40.82;17.79;99950.31;18297755;32;20373;-56
2022/07/23 15:16:35;;;;;;;7.62;3.35;;;;;;;40.05;18.99;99959.78;18297382;32;20362;-55
2022/07/23 15:26:38;;;;;;;5.70;3.17;;;;;;;39.70;19.68;99970.87;18297039;32;20661;-56
2022/07/23 15:36:43;;;;;;;7.32;3.62;;;;;;;38.78;22.31;99985.50;18296688;32;20090;-55
2022/07/23 15:46:46;;;;;;;7.07;3.87;;;;;;;37.08;28.59;99989.38;18296464;32;20100;-55
2022/07/23 15:56:51;;;;;;;11.30;6.03;;;;;;;35.88;30.62;100024.34;18322648;32;20365;-54
2022/07/23 16:06:55;;;;;;;10.65;5.62;;;;;;;34.90;30.90;100098.53;18347993;32;20347;-54
2022/07/23 16:17:00;;;;;;;10.05;5.93;;;;;;;34.43;31.90;100149.66;18347127;32;20158;-54
2022/07/23 16:27:04;;;;;;;10.70;6.10;;;;;;;33.52;34.44;100159.22;18294982;32;20097;-55
2022/07/23 16:37:10;;;;;;;10.55;5.85;;;;;;;32.69;36.70;100153.13;18293182;32;20395;-55
2022/07/23 16:47:14;;;;;;;11.93;6.30;;;;;;;32.22;36.09;100165.75;18294210;32;20094;-54
2022/07/23 16:57:18;;;;;;;10.65;6.35;;;;;;;31.13;38.51;100281.97;18294070;32;20138;-56
2022/07/23 17:07:22;;;;;;;12.05;6.05;;;;;;;29.65;43.77;100312.75;18347112;32;20119;-55
2022/07/23 17:17:27;;;;;;;11.75;5.90;;;;;;;28.90;47.43;100275.00;18292925;32;20366;-55
2022/07/23 17:27:30;;;;;;;10.25;5.97;;;;;;;28.62;46.54;100219.00;18292561;32;20166;-56
2022/07/23 17:37:35;;;;;;;10.27;5.45;;;;;;;28.59;48.39;100213.87;18292097;32;20102;-56
2022/07/23 17:47:38;;;;;;;10.00;5.30;;;;;;;28.85;46.20;100186.75;18291490;32;20472;-56
2022/07/23 17:57:43;;;;;;;9.85;5.50;;;;;;;29.21;41.91;100162.28;18291238;32;20094;-56
2022/07/23 18:07:46;;;;;;;10.13;5.07;;;;;;;29.40;40.24;100152.63;18343075;32;20142;-56
2022/07/23 18:17:51;;;;;;;10.20;5.37;;;;;;;29.86;40.00;100163.94;18289615;32;20163;-56
2022/07/23 18:27:55;;;;;;;10.70;5.55;;;;;;;30.01;40.77;100162.59;18342140;32;20129;-56
2022/07/23 18:38:00;;;;;;;9.98;5.20;;;;;;;29.56;43.62;100168.31;18290052;32;20090;-56
2022/07/23 18:48:04;;;;;;;13.18;6.20;;;;;;;29.55;44.77;100172.00;18342267;32;20432;-56
2022/07/23 18:58:09;;;;;;;12.40;5.70;;;;;;;29.39;45.10;100189.41;18293027;32;20204;-56
2022/07/23 19:08:12;;;;;;;9.57;5.87;;;;;;;29.05;46.42;100201.19;18297746;32;20113;-56
2022/07/23 19:18:18;;;;;;;9.77;5.90;;;;;;;28.69;47.80;100215.81;18297609;32;20124;-56
2022/07/23 19:28:21;;;;;;;12.50;6.03;;;;;;;28.00;51.07;100229.28;18297348;32;20667;-56
2022/07/23 19:38:26;;;;;;;12.02;6.20;;;;;;;27.82;51.39;100224.38;18296683;32;20127;-56
2022/07/23 19:48:30;;;;;;;9.93;5.80;;;;;;;27.78;51.06;100235.47;18296469;32;20097;-56
2022/07/23 19:58:34;;;;;;;11.63;6.35;;;;;;;27.40;52.07;100245.44;18348002;32;20090;-56
2022/07/23 20:08:38;;;;;;;11.70;6.62;;;;;;;27.10;53.10;100254.81;18294380;31;72815;-56
2022/07/23 20:18:43;;;;;;;13.80;6.55;;;;;;;26.64;54.07;100249.16;18295213;32;20109;-56
2022/07/23 20:28:49;;;;;;;15.23;7.82;;;;;;;26.30;55.82;100252.44;18295131;32;20082;-56
2022/07/23 20:38:54;;;;;;;14.35;7.43;;;;;;;26.25;56.19;100259.09;18294692;32;20183;-56
2022/07/23 20:48:57;;;;;;;11.12;6.53;;;;;;;26.10;56.37;100252.97;18346428;32;20097;-56
2022/07/23 20:59:02;;;;;;;12.77;6.70;;;;;;;26.12;55.64;100246.56;18293935;32;20089;-56
2022/07/23 21:09:06;;;;;;;12.37;7.03;;;;;;;26.25;54.97;100251.94;18293339;32;20101;-56
2022/07/23 21:19:11;;;;;;;11.50;6.40;;;;;;;25.88;56.18;100257.16;18344795;32;20102;-56
2022/07/23 21:29:14;;;;;;;11.85;7.07;;;;;;;25.83;55.92;100264.63;18292903;32;20112;-56
2022/07/23 21:39:19;;;;;;;15.82;7.60;;;;;;;25.68;55.42;100280.75;18291978;32;20093;-56
2022/07/23 21:49:22;;;;;;;14.35;8.48;;;;;;;25.61;56.55;100299.03;18291862;32;20662;-56
2022/07/23 21:59:27;;;;;;;13.73;8.05;;;;;;;25.58;57.40;100322.44;18291219;32;20162;-56
2022/07/23 22:09:30;;;;;;;14.80;8.65;;;;;;;25.72;57.67;100318.84;18290532;32;20147;-56
2022/07/23 22:19:35;;;;;;;14.40;8.43;;;;;;;25.55;57.95;100346.66;18290032;32;20091;-56
2022/07/23 22:29:38;;;;;;;15.32;8.20;;;;;;;25.61;57.88;100328.44;18290062;32;20501;-56
2022/07/23 22:39:42;;;;;;;14.75;8.75;;;;;;;25.61;58.21;100339.13;18298903;32;20108;-56
2022/07/23 22:49:46;;;;;;;13.02;7.45;;;;;;;25.43;59.33;100313.59;18298653;32;20131;-56
2022/07/23 22:59:50;;;;;;;12.35;7.45;;;;;;;25.68;58.45;100293.25;18298218;32;20151;-56
2022/07/23 23:09:54;;;;;;;13.95;7.45;;;;;;;25.49;59.23;100326.53;18297649;32;20107;-56
2022/07/23 23:19:59;;;;;;;13.52;7.78;;;;;;;24.69;61.35;100314.69;18297020;32;20362;-56
2022/07/23 23:30:02;;;;;;;13.73;7.60;;;;;;;25.05;59.89;100318.69;18297297;32;20109;-56
2022/07/23 23:40:08;;;;;;;13.13;7.65;;;;;;;25.13;60.05;100338.66;18296627;32;20094;-56
2022/07/23 23:50:12;;;;;;;14.07;7.82;;;;;;;24.74;60.97;100346.44;18296522;32;20104;-56
